createdAt,value
2019-02-19T00:00:45.932Z,72.60
2019-02-19T00:04:49.310Z,71.70
2019-02-19T00:08:52.709Z,72.70
2019-02-19T00:12:56.094Z,72.10
2019-02-19T00:16:59.478Z,72.90
2019-02-19T00:21:02.779Z,73.50
2019-02-19T00:25:06.367Z,74.10
2019-02-19T00:29:09.759Z,74.70
2019-02-19T00:33:13.142Z,75.40
2019-02-19T00:37:16.474Z,74.70
2019-02-19T00:41:19.778Z,74.30
2019-02-19T00:45:23.143Z,73.70
2019-02-19T00:49:26.558Z,75.00
2019-02-19T00:53:29.938Z,76.00
2019-02-19T00:57:33.342Z,76.20
2019-02-19T01:01:36.642Z,74.00
2019-02-19T01:05:39.944Z,75.30
2019-02-19T01:09:43.338Z,76.20
2019-02-19T01:13:46.734Z,76.00
2019-02-19T01:17:50.122Z,76.60
2019-02-19T01:21:53.491Z,77.30
2019-02-19T01:25:56.874Z,78.20
2019-02-19T01:30:00.866Z,78.70
2019-02-19T01:34:04.182Z,79.00
2019-02-19T01:38:07.573Z,78.60
2019-02-19T01:42:10.941Z,79.10
2019-02-19T01:46:14.318Z,79.70
2019-02-19T01:50:17.685Z,79.30
2019-02-19T01:54:21.005Z,80.20
2019-02-19T01:58:24.404Z,79.70
2019-02-19T02:02:27.770Z,80.20
2019-02-19T02:06:50.579Z,78.00
2019-02-19T02:10:53.951Z,77.10
2019-02-19T02:14:57.335Z,78.50
2019-02-19T02:19:00.725Z,77.70
2019-02-19T02:23:04.130Z,77.90
2019-02-19T02:27:07.523Z,78.50
2019-02-19T02:31:10.900Z,78.50
2019-02-19T02:35:14.290Z,77.60
2019-02-19T02:39:17.697Z,77.50
2019-02-19T02:43:21.100Z,79.00
2019-02-19T02:47:24.466Z,78.10
2019-02-19T02:51:27.842Z,78.80
2019-02-19T02:55:31.238Z,79.80
2019-02-19T02:59:34.628Z,79.30
2019-02-19T03:03:38.023Z,79.20
2019-02-19T03:07:43.032Z,79.20
2019-02-19T03:11:46.407Z,79.60
2019-02-19T03:15:49.791Z,77.90
2019-02-19T03:19:53.186Z,79.10
2019-02-19T03:23:56.583Z,79.00
2019-02-19T03:27:59.959Z,79.10
2019-02-19T03:32:03.329Z,80.00
2019-02-19T03:36:06.730Z,79.40
2019-02-19T03:40:10.168Z,80.20
2019-02-19T03:44:13.610Z,79.30
2019-02-19T03:48:16.971Z,80.10
2019-02-19T03:52:20.366Z,79.40
2019-02-19T03:56:23.758Z,79.50
2019-02-19T04:00:27.150Z,79.10
2019-02-19T04:04:30.548Z,79.20
2019-02-19T04:08:33.910Z,79.20
2019-02-19T04:12:37.224Z,79.30
2019-02-19T04:16:40.621Z,79.70
2019-02-19T04:20:44.005Z,80.50
2019-02-19T04:24:47.399Z,80.60
2019-02-19T04:28:50.774Z,81.40
2019-02-19T04:32:54.273Z,82.00
2019-02-19T04:36:57.654Z,82.10
2019-02-19T04:41:01.054Z,82.90
2019-02-19T04:45:05.187Z,82.60
2019-02-19T04:49:08.559Z,82.70
2019-02-19T04:53:11.935Z,82.70
2019-02-19T04:57:15.312Z,82.70
2019-02-19T05:01:18.711Z,83.40
2019-02-19T05:05:22.106Z,83.60
2019-02-19T05:09:25.471Z,84.00
2019-02-19T05:13:28.867Z,84.80
2019-02-19T05:17:32.250Z,85.00
2019-02-19T05:21:35.757Z,85.70
2019-02-19T05:25:39.182Z,85.50
2019-02-19T05:29:42.641Z,86.30
2019-02-19T05:33:46.011Z,86.40
2019-02-19T05:37:49.415Z,86.50
2019-02-19T05:41:52.816Z,86.90
2019-02-19T05:45:56.282Z,87.10
2019-02-19T05:49:59.696Z,87.30
2019-02-19T05:54:03.088Z,88.20
2019-02-19T05:58:06.483Z,88.30
2019-02-19T06:02:09.878Z,89.00
2019-02-19T06:06:13.262Z,88.60
2019-02-19T06:10:16.656Z,89.40
2019-02-19T06:14:20.051Z,90.40
2019-02-19T06:18:23.422Z,90.90
2019-02-19T06:22:26.831Z,91.40
2019-02-19T06:26:30.231Z,91.30
2019-02-19T06:30:33.648Z,91.60
2019-02-19T06:34:37.013Z,91.60
2019-02-19T06:38:40.389Z,92.00
2019-02-19T06:42:43.777Z,92.00
2019-02-19T06:46:47.179Z,92.30
2019-02-19T06:50:50.574Z,92.60
2019-02-19T06:54:53.942Z,92.80
2019-02-19T06:58:57.322Z,93.10
2019-02-19T07:03:02.339Z,93.20
2019-02-19T07:07:05.737Z,93.30
2019-02-19T07:11:09.131Z,93.50
2019-02-19T07:15:12.525Z,93.50
2019-02-19T07:19:15.902Z,93.40
2019-02-19T07:23:19.206Z,93.60
2019-02-19T07:27:22.603Z,93.90
2019-02-19T07:31:26.003Z,94.40
2019-02-19T07:35:29.376Z,94.10
2019-02-19T07:39:32.754Z,94.00
2019-02-19T07:43:36.137Z,94.00
2019-02-19T07:47:39.532Z,94.00
2019-02-19T07:51:42.971Z,93.80
2019-02-19T07:55:46.362Z,93.80
2019-02-19T07:59:49.727Z,94.00
2019-02-19T08:03:53.102Z,94.00
2019-02-19T08:07:56.510Z,93.90
2019-02-19T08:11:59.895Z,94.00
2019-02-19T08:16:03.304Z,93.70
2019-02-19T08:20:15.340Z,93.70
2019-02-19T08:24:13.491Z,93.30
2019-02-19T08:28:16.886Z,93.70
2019-02-19T08:32:20.280Z,93.40
2019-02-19T08:36:23.646Z,93.10
2019-02-19T08:40:27.029Z,92.70
2019-02-19T08:44:30.410Z,92.90
2019-02-19T08:48:33.826Z,92.90
2019-02-19T08:52:37.222Z,93.10
2019-02-19T08:56:40.607Z,92.50
2019-02-19T09:00:43.979Z,93.10
2019-02-19T09:04:47.371Z,92.70
2019-02-19T09:08:50.759Z,92.20
2019-02-19T09:12:54.164Z,91.60
2019-02-19T09:16:57.563Z,91.90
2019-02-19T09:21:00.975Z,91.70
2019-02-19T09:25:06.290Z,91.60
2019-02-19T09:29:09.693Z,91.40
2019-02-19T09:33:13.130Z,91.30
2019-02-19T09:37:16.493Z,91.50
2019-02-19T09:41:19.885Z,91.20
2019-02-19T09:45:23.268Z,91.10
2019-02-19T09:49:26.652Z,91.40
2019-02-19T09:53:30.067Z,91.50
2019-02-19T09:57:33.470Z,90.80
2019-02-19T10:01:36.844Z,90.80
2019-02-19T10:05:40.267Z,89.80
2019-02-19T10:09:43.719Z,89.90
2019-02-19T10:13:47.115Z,90.30
2019-02-19T10:17:50.451Z,89.90
2019-02-19T10:21:53.818Z,89.60
2019-02-19T10:25:57.186Z,90.00
2019-02-19T10:30:00.482Z,89.00
2019-02-19T10:34:03.881Z,88.20
2019-02-19T10:38:07.349Z,88.00
2019-02-19T10:42:10.747Z,86.50
2019-02-19T10:46:14.121Z,86.00
2019-02-19T10:50:17.510Z,84.20
2019-02-19T10:54:20.870Z,86.40
2019-02-19T10:58:24.522Z,84.20
2019-02-19T11:02:27.887Z,83.70
2019-02-19T11:06:31.259Z,82.60
2019-02-19T11:10:34.654Z,83.60
2019-02-19T11:14:38.047Z,82.00
2019-02-19T11:18:41.448Z,83.70
2019-02-19T11:22:47.748Z,82.80
2019-02-19T11:26:53.640Z,82.00
2019-02-19T11:30:57.253Z,81.30
2019-02-19T11:35:00.872Z,82.90
2019-02-19T11:39:05.023Z,81.50
2019-02-19T11:43:08.459Z,82.40
2019-02-19T11:47:11.823Z,82.50
2019-02-19T11:51:15.202Z,80.40
2019-02-19T11:55:19.409Z,80.10
2019-02-19T11:59:22.803Z,80.00
2019-02-19T12:03:26.220Z,79.90
2019-02-19T12:07:29.595Z,80.70
2019-02-19T12:11:32.998Z,78.60
2019-02-19T12:15:36.372Z,78.90
2019-02-19T12:19:39.771Z,77.90
2019-02-19T12:23:43.200Z,78.00
2019-02-19T12:27:46.572Z,77.90
2019-02-19T12:31:49.951Z,79.20
2019-02-19T12:35:53.338Z,78.80
2019-02-19T12:39:56.731Z,77.50
2019-02-19T12:44:00.251Z,79.10
2019-02-19T12:48:04.523Z,77.50
2019-02-19T12:52:07.910Z,77.30
2019-02-19T12:56:11.310Z,75.70
2019-02-19T13:00:19.450Z,77.30
2019-02-19T13:04:22.851Z,78.20
2019-02-19T13:08:26.232Z,76.60
2019-02-19T13:12:29.629Z,77.60
2019-02-19T13:16:32.994Z,77.00
2019-02-19T13:20:36.483Z,75.30
2019-02-19T13:24:39.867Z,75.60
2019-02-19T13:28:43.239Z,77.50
2019-02-19T13:32:46.675Z,77.00
2019-02-19T13:36:50.052Z,76.30
2019-02-19T13:40:53.498Z,78.90
2019-02-19T13:44:56.895Z,76.40
2019-02-19T13:49:00.304Z,76.60
2019-02-19T13:53:05.324Z,77.60
2019-02-19T13:57:08.699Z,78.10
2019-02-19T14:01:12.096Z,78.80
2019-02-19T14:05:15.479Z,77.10
2019-02-19T14:09:18.859Z,78.30
2019-02-19T14:13:22.239Z,78.70
2019-02-19T14:17:25.619Z,78.70
2019-02-19T14:21:30.639Z,80.10
2019-02-19T14:25:47.615Z,79.20
2019-02-19T14:29:58.522Z,80.10
2019-02-19T14:34:19.818Z,79.60
2019-02-19T14:38:33.930Z,79.00
2019-02-19T14:42:55.192Z,80.00
2019-02-19T14:47:00.227Z,80.70
2019-02-19T14:51:05.269Z,79.70
2019-02-19T14:55:10.296Z,78.90
2019-02-19T14:59:15.328Z,82.50
2019-02-19T15:03:26.106Z,84.00
2019-02-19T15:07:37.124Z,82.50
2019-02-19T15:11:48.186Z,82.50
2019-02-19T15:15:53.216Z,81.70
2019-02-19T15:20:14.549Z,82.50
2019-02-19T15:24:19.575Z,83.30
2019-02-19T15:28:36.326Z,82.60
2019-02-19T15:32:41.323Z,83.70
2019-02-19T15:37:02.547Z,83.50
2019-02-19T15:41:25.927Z,82.80
2019-02-19T15:50:06.743Z,84.00
2019-02-19T15:54:14.408Z,84.50
2019-02-19T15:58:35.764Z,83.50
2019-02-19T16:02:43.599Z,84.60
2019-02-19T16:06:57.595Z,86.00
2019-02-19T16:11:18.872Z,86.60
2019-02-19T16:15:36.235Z,88.60
2019-02-19T16:23:58.659Z,90.80
2019-02-19T16:28:03.691Z,91.90
2019-02-19T16:32:08.755Z,92.80
2019-02-19T16:36:26.268Z,93.50
2019-02-19T16:40:31.270Z,93.20
2019-02-19T16:44:39.271Z,93.30
2019-02-19T16:49:01.045Z,94.10
2019-02-19T16:53:12.298Z,94.30
2019-02-19T16:57:17.316Z,94.20
2019-02-19T17:05:54.087Z,93.90
2019-02-19T17:10:17.266Z,94.10
2019-02-19T17:14:33.512Z,94.40
2019-02-19T17:18:47.041Z,94.50
2019-02-19T17:22:58.292Z,95.10
2019-02-19T17:27:19.750Z,94.90
2019-02-19T17:31:24.778Z,94.50
2019-02-19T17:35:42.019Z,93.90
2019-02-19T17:39:47.126Z,92.70
2019-02-19T17:43:58.292Z,92.80
2019-02-19T17:48:19.855Z,93.00
2019-02-19T17:52:37.078Z,93.40
2019-02-19T17:57:00.670Z,93.70
2019-02-19T18:01:08.493Z,94.00
2019-02-19T18:05:28.864Z,94.40
2019-02-19T18:09:42.642Z,94.20
2019-02-19T18:13:53.411Z,93.40
2019-02-19T18:18:07.650Z,93.60
2019-02-19T18:22:11.167Z,93.50
2019-02-19T18:26:14.560Z,93.80
2019-02-19T18:30:17.994Z,93.80
2019-02-19T18:34:21.407Z,94.00
2019-02-19T18:38:24.788Z,94.30
2019-02-19T18:42:28.175Z,94.70
2019-02-19T18:46:31.566Z,94.80
2019-02-19T18:50:35.014Z,95.10
2019-02-19T18:54:38.399Z,95.30
2019-02-19T18:58:41.808Z,95.10
2019-02-19T19:02:45.199Z,95.20
2019-02-19T19:06:48.588Z,95.10
2019-02-19T19:10:51.992Z,95.40
2019-02-19T19:14:55.363Z,95.80
2019-02-19T19:18:58.747Z,95.50
2019-02-19T19:23:02.227Z,95.50
2019-02-19T19:27:05.633Z,95.60
2019-02-19T19:31:09.014Z,95.70
2019-02-19T19:35:12.369Z,95.50
2019-02-19T19:39:15.763Z,95.60
2019-02-19T19:43:19.159Z,95.40
2019-02-19T19:47:22.559Z,95.30
2019-02-19T19:51:25.959Z,95.30
2019-02-19T19:55:29.343Z,95.00
2019-02-19T19:59:32.711Z,95.00
2019-02-19T20:03:36.103Z,95.10
2019-02-19T20:07:39.520Z,95.10
2019-02-19T20:11:42.907Z,95.40
2019-02-19T20:15:46.303Z,95.60
2019-02-19T20:19:49.685Z,95.60
2019-02-19T20:23:53.069Z,95.50
2019-02-19T20:27:56.467Z,95.40
2019-02-19T20:31:59.859Z,95.20
2019-02-19T20:36:03.360Z,94.40
2019-02-19T20:40:12.498Z,94.00
2019-02-19T20:44:15.906Z,94.00
2019-02-19T20:48:19.309Z,94.10
2019-02-19T20:52:22.704Z,94.40
2019-02-19T20:56:26.135Z,94.50
2019-02-19T21:00:30.250Z,95.00
2019-02-19T21:04:33.695Z,95.20
2019-02-19T21:08:37.101Z,95.50
2019-02-19T21:12:40.497Z,96.30
2019-02-19T21:16:43.881Z,96.40
2019-02-19T21:20:47.265Z,96.20
2019-02-19T21:24:50.675Z,96.40
2019-02-19T21:28:54.085Z,96.60
2019-02-19T21:32:57.481Z,96.50
2019-02-19T21:37:00.864Z,96.70
2019-02-19T21:41:04.243Z,96.50
2019-02-19T21:45:12.775Z,96.50
2019-02-19T21:49:16.173Z,96.40
2019-02-19T21:53:19.575Z,96.50
2019-02-19T21:57:22.957Z,96.50
2019-02-19T22:01:26.331Z,96.30
2019-02-19T22:05:29.727Z,96.30
2019-02-19T22:09:33.128Z,96.60
2019-02-19T22:13:36.530Z,96.50
2019-02-19T22:17:39.901Z,96.00
2019-02-19T22:21:44.918Z,96.00
2019-02-19T22:25:48.320Z,96.00
2019-02-19T22:29:51.730Z,95.70
2019-02-19T22:33:55.149Z,95.90
2019-02-19T22:37:58.523Z,95.60
2019-02-19T22:42:01.903Z,95.50
2019-02-19T22:46:05.307Z,95.50
2019-02-19T22:50:09.556Z,95.80
2019-02-19T22:54:26.562Z,95.60
2019-02-19T22:58:29.858Z,95.70
2019-02-19T23:02:33.261Z,95.60
2019-02-19T23:06:36.682Z,95.50
2019-02-19T23:10:40.156Z,95.50
2019-02-19T23:14:43.553Z,95.30
2019-02-19T23:18:47.012Z,95.20
2019-02-19T23:22:50.409Z,95.00
2019-02-19T23:26:53.825Z,95.30
2019-02-19T23:30:57.214Z,95.30
2019-02-19T23:35:14.353Z,95.20
2019-02-19T23:39:17.735Z,95.10
2019-02-19T23:43:21.107Z,95.10
2019-02-19T23:47:24.506Z,95.10
2019-02-19T23:51:27.902Z,95.10
2019-02-19T23:55:31.301Z,95.30
2019-02-19T23:59:34.698Z,95.00
